createdAt,value
2024-02-08T00:00:46.889Z,18.38
2024-02-08T00:03:51.263Z,18.32
2024-02-08T00:06:53.729Z,18.15
2024-02-08T00:09:58.929Z,18.20
2024-02-08T00:13:01.378Z,18.15
2024-02-08T00:16:04.081Z,18.08
2024-02-08T00:19:06.675Z,18.30
2024-02-08T00:22:09.806Z,18.09
2024-02-08T00:25:12.176Z,18.07
2024-02-08T00:28:14.904Z,18.26
2024-02-08T00:31:17.267Z,18.05
2024-02-08T00:34:19.856Z,18.07
2024-02-08T00:37:22.446Z,17.96
2024-02-08T00:40:25.578Z,18.19
2024-02-08T00:43:28.169Z,18.06
2024-02-08T00:46:30.643Z,17.94
2024-02-08T00:49:33.044Z,18.17
2024-02-08T00:52:35.533Z,18.17
2024-02-08T00:55:38.057Z,17.99
2024-02-08T00:58:40.641Z,17.99
2024-02-08T01:01:43.167Z,17.87
2024-02-08T01:04:50.568Z,17.94
2024-02-08T01:07:53.150Z,18.06
2024-02-08T01:10:55.754Z,18.07
2024-02-08T01:13:58.910Z,17.85
2024-02-08T01:17:01.452Z,17.98
2024-02-08T01:20:08.018Z,18.04
2024-02-08T01:23:11.195Z,18.01
2024-02-08T01:26:13.914Z,18.01
2024-02-08T01:29:16.928Z,18.00
2024-02-08T01:32:21.425Z,17.90
2024-02-08T01:35:24.706Z,17.92
2024-02-08T01:38:28.790Z,17.77
2024-02-08T01:41:31.257Z,17.67
2024-02-08T01:44:33.683Z,17.68
2024-02-08T01:47:36.185Z,17.75
2024-02-08T01:50:42.022Z,17.92
2024-02-08T01:53:45.379Z,17.64
2024-02-08T01:56:51.895Z,17.71
2024-02-08T01:59:54.921Z,17.75
2024-02-08T02:03:02.185Z,17.88
2024-02-08T02:06:09.667Z,17.66
2024-02-08T02:09:13.103Z,17.68
2024-02-08T02:12:18.004Z,17.84
2024-02-08T02:15:20.655Z,17.81
2024-02-08T02:18:23.182Z,17.59
2024-02-08T02:21:26.138Z,17.80
2024-02-08T02:24:28.653Z,17.51
2024-02-08T02:27:31.197Z,17.78
2024-02-08T02:30:35.985Z,17.78
2024-02-08T02:33:38.527Z,17.72
2024-02-08T02:36:46.104Z,17.75
2024-02-08T02:39:48.575Z,17.54
2024-02-08T02:42:55.414Z,17.76
2024-02-08T02:45:57.834Z,17.74
2024-02-08T02:49:00.327Z,17.72
2024-02-08T02:52:02.988Z,17.62
2024-02-08T02:55:05.757Z,17.72
2024-02-08T02:58:08.117Z,17.42
2024-02-08T03:01:10.570Z,17.66
2024-02-08T03:04:13.040Z,17.50
2024-02-08T03:07:15.648Z,17.78
2024-02-08T03:10:21.962Z,17.83
2024-02-08T03:13:24.457Z,17.63
2024-02-08T03:16:29.589Z,17.64
2024-02-08T03:19:37.093Z,17.80
2024-02-08T03:22:40.163Z,18.01
2024-02-08T03:25:42.724Z,18.05
2024-02-08T03:28:45.610Z,17.98
2024-02-08T03:31:48.152Z,18.35
2024-02-08T03:34:53.942Z,18.35
2024-02-08T03:37:56.918Z,18.56
2024-02-08T03:40:59.570Z,18.79
2024-02-08T03:44:03.963Z,18.84
2024-02-08T03:47:10.662Z,19.11
2024-02-08T03:50:13.643Z,19.09
2024-02-08T03:53:19.209Z,19.31
2024-02-08T03:56:33.036Z,19.39
2024-02-08T03:59:39.016Z,19.45
2024-02-08T04:02:45.075Z,19.71
2024-02-08T04:05:47.448Z,19.81
2024-02-08T04:09:10.797Z,19.97
2024-02-08T04:12:32.022Z,20.13
2024-02-08T04:15:52.874Z,20.31
2024-02-08T04:19:13.933Z,20.25
2024-02-08T04:22:34.999Z,20.50
2024-02-08T04:25:56.057Z,20.74
2024-02-08T04:29:17.023Z,20.72
2024-02-08T04:32:38.256Z,20.83
2024-02-08T04:35:59.328Z,20.90
2024-02-08T04:42:41.029Z,20.99
2024-02-08T04:46:02.059Z,21.18
2024-02-08T04:49:22.977Z,21.49
2024-02-08T04:52:43.879Z,21.60
2024-02-08T04:55:47.263Z,21.55
2024-02-08T04:59:11.032Z,21.79
2024-02-08T05:02:15.535Z,21.88
2024-02-08T05:05:20.701Z,21.97
2024-02-08T05:08:23.359Z,21.86
2024-02-08T05:11:25.786Z,21.83
2024-02-08T05:14:28.393Z,22.08
2024-02-08T05:17:31.311Z,22.08
2024-02-08T05:20:37.333Z,21.70
2024-02-08T05:23:40.237Z,21.90
2024-02-08T05:26:42.751Z,21.92
2024-02-08T05:29:47.927Z,21.78
2024-02-08T05:32:50.470Z,21.59
2024-02-08T05:35:57.959Z,21.54
2024-02-08T05:39:00.429Z,21.50
2024-02-08T05:42:03.751Z,21.36
2024-02-08T05:45:21.880Z,21.46
2024-02-08T05:48:28.899Z,21.28
2024-02-08T05:51:32.914Z,21.12
2024-02-08T05:54:38.624Z,21.00
2024-02-08T05:57:45.802Z,21.11
2024-02-08T06:00:54.615Z,21.09
2024-02-08T06:04:01.508Z,20.95
2024-02-08T06:07:07.244Z,21.05
2024-02-08T06:10:16.669Z,20.97
2024-02-08T06:13:23.878Z,21.17
2024-02-08T06:16:50.578Z,20.92
2024-02-08T06:19:53.382Z,21.12
2024-02-08T06:22:56.610Z,21.15
2024-02-08T06:26:12.159Z,21.38
2024-02-08T06:29:21.819Z,21.33
2024-02-08T06:32:38.193Z,21.54
2024-02-08T06:35:46.367Z,21.54
2024-02-08T06:38:54.902Z,21.60
2024-02-08T06:42:09.107Z,21.76
2024-02-08T06:45:46.091Z,21.79
2024-02-08T06:49:11.613Z,21.91
2024-02-08T06:52:33.215Z,22.03
2024-02-08T06:55:54.132Z,22.14
2024-02-08T06:59:15.356Z,22.20
2024-02-08T07:02:37.720Z,22.26
2024-02-08T07:06:01.158Z,22.24
2024-02-08T07:09:22.298Z,21.92
2024-02-08T07:12:50.088Z,22.20
2024-02-08T07:16:11.086Z,22.09
2024-02-08T07:19:32.047Z,21.98
2024-02-08T07:22:53.362Z,21.95
2024-02-08T07:26:14.190Z,21.93
2024-02-08T07:29:35.241Z,21.74
2024-02-08T07:32:56.336Z,21.76
2024-02-08T07:36:19.306Z,21.56
2024-02-08T07:39:31.612Z,21.71
2024-02-08T07:42:36.450Z,21.45
2024-02-08T07:45:39.113Z,21.44
2024-02-08T07:48:45.206Z,21.46
2024-02-08T07:51:52.776Z,21.24
2024-02-08T07:55:15.789Z,21.22
2024-02-08T07:58:20.175Z,21.11
2024-02-08T08:01:22.918Z,21.01
2024-02-08T08:04:53.097Z,21.12
2024-02-08T08:08:01.322Z,20.96
2024-02-08T08:11:06.868Z,20.85
2024-02-08T08:14:10.980Z,20.81
2024-02-08T08:17:16.758Z,20.94
2024-02-08T08:20:37.940Z,20.87
2024-02-08T08:24:00.433Z,20.84
2024-02-08T08:27:08.233Z,20.83
2024-02-08T08:30:12.837Z,20.69
2024-02-08T08:33:35.353Z,20.72
2024-02-08T08:36:43.335Z,20.53
2024-02-08T08:40:02.168Z,20.54
2024-02-08T08:43:11.664Z,20.73
2024-02-08T08:46:14.567Z,20.53
2024-02-08T08:49:22.528Z,20.71
2024-02-08T08:52:25.702Z,20.58
2024-02-08T08:55:28.579Z,20.70
2024-02-08T08:58:51.412Z,20.79
2024-02-08T09:01:56.829Z,20.68
2024-02-08T09:05:10.971Z,20.66
2024-02-08T09:08:23.490Z,20.79
2024-02-08T09:11:27.214Z,20.80
2024-02-08T09:14:33.804Z,20.74
2024-02-08T09:17:53.298Z,20.78
2024-02-08T09:20:58.227Z,20.51
2024-02-08T09:24:07.936Z,20.76
2024-02-08T09:27:21.008Z,20.68
2024-02-08T09:30:39.893Z,20.49
2024-02-08T09:33:47.257Z,20.57
2024-02-08T09:36:50.429Z,20.40
2024-02-08T09:40:00.627Z,20.71
2024-02-08T09:43:18.534Z,20.72
2024-02-08T09:46:35.447Z,20.72
2024-02-08T09:49:40.143Z,20.72
2024-02-08T09:53:01.486Z,20.66
2024-02-08T09:56:27.072Z,21.08
2024-02-08T10:00:05.591Z,21.49
2024-02-08T10:03:33.278Z,21.79
2024-02-08T10:06:43.257Z,21.82
2024-02-08T10:09:49.160Z,21.81
2024-02-08T10:13:07.331Z,21.56
2024-02-08T10:16:14.374Z,21.60
2024-02-08T10:19:48.843Z,21.66
2024-02-08T10:23:10.059Z,21.55
2024-02-08T10:26:22.655Z,21.50
2024-02-08T10:29:26.505Z,21.41
2024-02-08T10:32:30.636Z,21.48
2024-02-08T10:35:40.698Z,21.36
2024-02-08T10:38:59.472Z,21.52
2024-02-08T10:42:04.834Z,21.32
2024-02-08T10:45:07.781Z,21.33
2024-02-08T10:48:15.259Z,21.48
2024-02-08T10:51:27.472Z,21.39
2024-02-08T10:54:44.274Z,21.34
2024-02-08T10:58:23.642Z,21.38
2024-02-08T11:01:39.132Z,21.15
2024-02-08T11:04:42.915Z,21.37
2024-02-08T11:07:49.604Z,21.32
2024-02-08T11:11:00.473Z,21.17
2024-02-08T11:14:09.665Z,21.25
2024-02-08T11:17:21.445Z,21.21
2024-02-08T11:20:46.450Z,21.16
2024-02-08T11:26:59.648Z,21.09
2024-02-08T11:30:02.129Z,20.93
2024-02-08T11:33:05.529Z,20.94
2024-02-08T11:36:15.951Z,20.98
2024-02-08T11:39:33.103Z,20.88
2024-02-08T11:42:38.482Z,20.98
2024-02-08T11:45:53.694Z,21.04
2024-02-08T11:49:11.091Z,20.94
2024-02-08T11:52:23.331Z,20.93
2024-02-08T11:55:26.089Z,20.73
2024-02-08T11:58:31.318Z,20.90
2024-02-08T12:01:34.799Z,20.88
2024-02-08T12:04:39.546Z,20.93
2024-02-08T12:07:46.891Z,20.89
2024-02-08T12:10:51.032Z,20.82
2024-02-08T12:13:59.194Z,20.80
2024-02-08T12:17:08.039Z,20.61
2024-02-08T12:20:11.448Z,20.53
2024-02-08T12:23:17.901Z,20.62
2024-02-08T12:26:23.666Z,20.63
2024-02-08T12:29:27.236Z,20.58
2024-02-08T12:32:32.228Z,20.51
2024-02-08T12:35:37.110Z,20.48
2024-02-08T12:38:39.792Z,20.41
2024-02-08T12:41:42.186Z,20.46
2024-02-08T12:44:50.533Z,20.53
2024-02-08T12:47:53.760Z,20.46
2024-02-08T12:50:56.769Z,20.59
2024-02-08T12:54:03.614Z,20.65
2024-02-08T12:57:14.305Z,20.82
2024-02-08T13:00:22.919Z,20.94
2024-02-08T13:03:27.706Z,21.00
2024-02-08T13:06:30.322Z,21.06
2024-02-08T13:09:38.675Z,20.93
2024-02-08T13:12:44.415Z,21.15
2024-02-08T13:15:46.931Z,21.06
2024-02-08T13:18:56.385Z,21.02
2024-02-08T13:21:59.234Z,21.02
2024-02-08T13:25:01.827Z,21.12
2024-02-08T13:28:04.542Z,21.13
2024-02-08T13:31:10.230Z,21.03
2024-02-08T13:34:15.049Z,21.07
2024-02-08T13:37:23.516Z,21.07
2024-02-08T13:40:27.154Z,21.01
2024-02-08T13:43:31.905Z,20.95
2024-02-08T13:46:37.893Z,20.95
2024-02-08T13:49:41.085Z,20.84
2024-02-08T13:52:43.862Z,20.88
2024-02-08T13:55:54.329Z,20.74
2024-02-08T13:59:01.908Z,20.63
2024-02-08T14:02:05.855Z,20.85
2024-02-08T14:05:18.314Z,20.83
2024-02-08T14:08:25.408Z,20.79
2024-02-08T14:11:28.483Z,20.59
2024-02-08T14:14:41.839Z,20.71
2024-02-08T14:17:55.439Z,20.44
2024-02-08T14:20:59.619Z,20.63
2024-02-08T14:24:03.549Z,20.48
2024-02-08T14:27:07.084Z,20.55
2024-02-08T14:30:10.081Z,20.49
2024-02-08T14:33:12.898Z,20.52
2024-02-08T14:36:15.926Z,20.49
2024-02-08T14:39:29.425Z,20.51
2024-02-08T14:42:38.514Z,20.58
2024-02-08T14:45:41.009Z,20.52
2024-02-08T14:48:43.461Z,20.30
2024-02-08T14:51:49.753Z,20.50
2024-02-08T14:55:14.217Z,20.40
2024-02-08T14:58:37.019Z,20.29
2024-02-08T15:01:40.170Z,20.16
2024-02-08T15:04:47.173Z,20.08
2024-02-08T15:07:52.750Z,19.96
2024-02-08T15:11:05.446Z,20.14
2024-02-08T15:14:08.538Z,20.15
2024-02-08T15:17:20.651Z,20.07
2024-02-08T15:20:44.988Z,20.11
2024-02-08T15:24:07.436Z,19.83
2024-02-08T15:27:19.390Z,19.85
2024-02-08T15:30:31.356Z,19.73
2024-02-08T15:33:33.785Z,19.96
2024-02-08T15:36:49.419Z,19.65
2024-02-08T15:40:10.947Z,19.72
2024-02-08T15:43:17.310Z,19.65
2024-02-08T15:46:21.707Z,19.86
2024-02-08T15:49:30.298Z,19.75
2024-02-08T15:52:35.949Z,19.64
2024-02-08T15:55:41.774Z,19.78
2024-02-08T15:58:46.557Z,19.51
2024-02-08T16:01:53.157Z,19.49
2024-02-08T16:05:13.632Z,19.58
2024-02-08T16:08:16.534Z,19.43
2024-02-08T16:11:21.779Z,19.41
2024-02-08T16:14:27.381Z,19.53
2024-02-08T16:17:32.916Z,19.63
2024-02-08T16:20:40.349Z,19.64
2024-02-08T16:23:48.398Z,19.45
2024-02-08T16:26:57.374Z,19.61
2024-02-08T16:30:09.784Z,19.58
2024-02-08T16:33:20.868Z,19.82
2024-02-08T16:36:28.248Z,20.02
2024-02-08T16:39:34.502Z,20.00
2024-02-08T16:42:37.346Z,20.17
2024-02-08T16:45:48.846Z,20.54
2024-02-08T16:48:55.497Z,20.44
2024-02-08T16:51:58.521Z,20.57
2024-02-08T16:55:02.351Z,20.72
2024-02-08T16:58:18.954Z,20.78
2024-02-08T17:01:31.041Z,20.63
2024-02-08T17:04:50.358Z,20.82
2024-02-08T17:07:53.574Z,20.72
2024-02-08T17:11:02.953Z,20.86
2024-02-08T17:14:09.719Z,20.66
2024-02-08T17:17:15.429Z,20.81
2024-02-08T17:20:38.933Z,20.61
2024-02-08T17:23:54.937Z,20.51
2024-02-08T17:27:01.168Z,20.49
2024-02-08T17:30:18.599Z,20.66
2024-02-08T17:33:21.511Z,20.64
2024-02-08T17:36:32.380Z,20.60
2024-02-08T17:39:43.741Z,20.46
2024-02-08T17:43:00.270Z,20.53
2024-02-08T17:46:06.049Z,20.29
2024-02-08T17:49:17.291Z,20.26
2024-02-08T17:52:24.841Z,20.17
2024-02-08T17:55:34.905Z,20.28
2024-02-08T17:58:37.667Z,20.26
2024-02-08T18:01:56.582Z,20.02
2024-02-08T18:05:02.546Z,20.11
2024-02-08T18:08:10.465Z,19.98
2024-02-08T18:11:17.523Z,19.91
2024-02-08T18:14:20.163Z,19.88
2024-02-08T18:17:26.417Z,19.92
2024-02-08T18:20:34.377Z,20.03
2024-02-08T18:23:37.029Z,19.77
2024-02-08T18:26:41.770Z,19.77
2024-02-08T18:29:46.361Z,19.72
2024-02-08T18:32:49.339Z,19.70
2024-02-08T18:35:54.499Z,19.83
2024-02-08T18:38:58.654Z,19.79
2024-02-08T18:42:03.295Z,19.80
2024-02-08T18:45:08.552Z,19.77
2024-02-08T18:48:12.831Z,19.76
2024-02-08T18:51:17.298Z,19.76
2024-02-08T18:54:30.102Z,19.73
2024-02-08T18:57:32.689Z,19.60
2024-02-08T19:00:35.121Z,19.58
2024-02-08T19:03:38.520Z,19.70
2024-02-08T19:06:41.049Z,19.39
2024-02-08T19:09:44.789Z,19.38
2024-02-08T19:12:53.043Z,19.40
2024-02-08T19:16:01.782Z,19.50
2024-02-08T19:19:04.946Z,19.35
2024-02-08T19:22:14.701Z,19.28
2024-02-08T19:25:22.887Z,19.14
2024-02-08T19:28:26.006Z,19.09
2024-02-08T19:31:29.233Z,19.18
2024-02-08T19:34:32.107Z,19.14
2024-02-08T19:37:35.019Z,19.13
2024-02-08T19:40:37.836Z,19.05
2024-02-08T19:43:40.752Z,19.30
2024-02-08T19:46:53.620Z,19.14
2024-02-08T19:50:07.148Z,19.05
2024-02-08T19:53:11.123Z,19.15
2024-02-08T19:56:19.930Z,19.19
2024-02-08T19:59:28.419Z,19.03
2024-02-08T20:02:35.745Z,18.98
2024-02-08T20:05:38.757Z,18.94
2024-02-08T20:08:46.205Z,18.90
2024-02-08T20:11:53.339Z,18.98
2024-02-08T20:14:58.164Z,19.07
2024-02-08T20:18:02.582Z,18.98
2024-02-08T20:21:05.483Z,19.06
2024-02-08T20:24:13.060Z,18.91
2024-02-08T20:27:16.188Z,18.85
2024-02-08T20:30:22.740Z,18.83
2024-02-08T20:33:32.346Z,18.93
2024-02-08T20:36:34.914Z,18.90
2024-02-08T20:39:37.388Z,18.73
2024-02-08T20:42:39.796Z,18.89
2024-02-08T20:45:42.538Z,18.65
2024-02-08T20:48:45.069Z,18.68
2024-02-08T20:51:53.728Z,18.86
2024-02-08T20:54:56.289Z,18.86
2024-02-08T20:57:58.817Z,18.84
2024-02-08T21:01:03.139Z,18.72
2024-02-08T21:04:09.321Z,18.78
2024-02-08T21:07:13.465Z,18.70
2024-02-08T21:10:23.757Z,18.65
2024-02-08T21:13:26.876Z,18.70
2024-02-08T21:16:31.164Z,18.60
2024-02-08T21:19:37.872Z,18.57
2024-02-08T21:22:41.261Z,18.56
2024-02-08T21:25:43.828Z,18.58
2024-02-08T21:28:52.224Z,18.69
2024-02-08T21:31:56.838Z,18.68
2024-02-08T21:34:59.471Z,18.38
2024-02-08T21:38:06.107Z,18.41
2024-02-08T21:41:08.621Z,18.36
2024-02-08T21:44:11.599Z,18.40
2024-02-08T21:47:17.353Z,18.38
2024-02-08T21:50:20.135Z,18.39
2024-02-08T21:53:22.515Z,18.43
2024-02-08T21:56:24.866Z,18.38
2024-02-08T21:59:29.567Z,18.54
2024-02-08T22:02:34.202Z,18.25
2024-02-08T22:05:36.800Z,18.25
2024-02-08T22:08:39.215Z,18.39
2024-02-08T22:11:48.967Z,18.36
2024-02-08T22:14:51.520Z,18.45
2024-02-08T22:17:53.978Z,18.30
2024-02-08T22:20:56.433Z,18.23
2024-02-08T22:23:58.822Z,18.31
2024-02-08T22:27:02.125Z,18.45
2024-02-08T22:30:11.279Z,18.41
2024-02-08T22:33:15.291Z,18.29
2024-02-08T22:36:17.802Z,18.29
2024-02-08T22:39:20.252Z,18.39
2024-02-08T22:42:24.366Z,18.33
2024-02-08T22:45:26.795Z,18.30
2024-02-08T22:48:29.152Z,18.27
2024-02-08T22:51:33.693Z,18.12
2024-02-08T22:54:36.038Z,18.09
2024-02-08T22:57:40.124Z,18.11
2024-02-08T23:00:51.692Z,18.16
2024-02-08T23:03:54.370Z,18.13
2024-02-08T23:06:57.003Z,18.02
2024-02-08T23:10:01.097Z,18.08
2024-02-08T23:13:04.565Z,18.07
2024-02-08T23:16:09.378Z,18.03
2024-02-08T23:19:13.549Z,17.99
2024-02-08T23:22:15.988Z,18.00
2024-02-08T23:25:18.488Z,18.00
2024-02-08T23:28:21.645Z,18.15
2024-02-08T23:31:29.165Z,18.21
2024-02-08T23:34:31.806Z,17.96
2024-02-08T23:37:34.348Z,18.04
2024-02-08T23:40:36.883Z,18.10
2024-02-08T23:43:39.526Z,17.96
2024-02-08T23:46:43.380Z,17.94
2024-02-08T23:49:45.894Z,17.92
2024-02-08T23:52:51.253Z,18.12
2024-02-08T23:55:56.120Z,17.88
2024-02-08T23:58:59.180Z,17.88
